sensor_id;sensor_type;location;lat;lon;timestamp;P1;durP1;ratioP1;P2;durP2;ratioP2
14858;SDS011;7521;51.700;6.874;2024-02-26T00:01:07;3.60;;;1.77;;
14858;SDS011;7521;51.700;6.874;2024-02-26T00:04:13;3.50;;;2.00;;
14858;SDS011;7521;51.700;6.874;2024-02-26T00:07:18;3.73;;;2.20;;
14858;SDS011;7521;51.700;6.874;2024-02-26T00:10:23;4.67;;;2.17;;
14858;SDS011;7521;51.700;6.874;2024-02-26T00:13:29;4.60;;;2.20;;
14858;SDS011;7521;51.700;6.874;2024-02-26T00:16:34;4.25;;;1.95;;
14858;SDS011;7521;51.700;6.874;2024-02-26T00:19:39;2.33;;;1.50;;
14858;SDS011;7521;51.700;6.874;2024-02-26T00:22:44;4.22;;;2.08;;
14858;SDS011;7521;51.700;6.874;2024-02-26T00:25:50;3.30;;;1.80;;
14858;SDS011;7521;51.700;6.874;2024-02-26T00:28:55;3.07;;;1.77;;
14858;SDS011;7521;51.700;6.874;2024-02-26T00:32:00;2.15;;;1.88;;
14858;SDS011;7521;51.700;6.874;2024-02-26T00:35:05;2.00;;;1.52;;
14858;SDS011;7521;51.700;6.874;2024-02-26T00:38:11;3.73;;;1.83;;
14858;SDS011;7521;51.700;6.874;2024-02-26T00:41:19;2.53;;;1.80;;
14858;SDS011;7521;51.700;6.874;2024-02-26T00:44:25;3.20;;;1.87;;
14858;SDS011;7521;51.700;6.874;2024-02-26T00:47:30;3.28;;;2.10;;
14858;SDS011;7521;51.700;6.874;2024-02-26T00:50:35;4.20;;;1.80;;
14858;SDS011;7521;51.700;6.874;2024-02-26T00:53:40;1.95;;;1.50;;
14858;SDS011;7521;51.700;6.874;2024-02-26T00:56:46;3.13;;;2.03;;
14858;SDS011;7521;51.700;6.874;2024-02-26T00:59:51;3.05;;;1.63;;
14858;SDS011;7521;51.700;6.874;2024-02-26T01:02:56;3.67;;;1.90;;
14858;SDS011;7521;51.700;6.874;2024-02-26T01:06:01;2.47;;;1.90;;
14858;SDS011;7521;51.700;6.874;2024-02-26T01:09:07;3.47;;;1.90;;
14858;SDS011;7521;51.700;6.874;2024-02-26T01:12:13;3.67;;;2.07;;
14858;SDS011;7521;51.700;6.874;2024-02-26T01:15:18;4.13;;;2.17;;
14858;SDS011;7521;51.700;6.874;2024-02-26T01:18:27;3.47;;;1.90;;
14858;SDS011;7521;51.700;6.874;2024-02-26T01:21:32;3.73;;;1.83;;
14858;SDS011;7521;51.700;6.874;2024-02-26T01:24:37;4.47;;;2.10;;
14858;SDS011;7521;51.700;6.874;2024-02-26T01:27:42;3.97;;;1.83;;
14858;SDS011;7521;51.700;6.874;2024-02-26T01:30:48;2.57;;;2.00;;
14858;SDS011;7521;51.700;6.874;2024-02-26T01:33:54;3.07;;;1.73;;
14858;SDS011;7521;51.700;6.874;2024-02-26T01:36:59;4.60;;;2.00;;
14858;SDS011;7521;51.700;6.874;2024-02-26T01:40:05;2.87;;;1.80;;
14858;SDS011;7521;51.700;6.874;2024-02-26T01:43:10;2.83;;;1.53;;
14858;SDS011;7521;51.700;6.874;2024-02-26T01:46:16;3.30;;;1.70;;
14858;SDS011;7521;51.700;6.874;2024-02-26T01:49:21;2.23;;;1.57;;
14858;SDS011;7521;51.700;6.874;2024-02-26T01:52:26;4.53;;;1.73;;
14858;SDS011;7521;51.700;6.874;2024-02-26T01:55:32;3.60;;;2.20;;
14858;SDS011;7521;51.700;6.874;2024-02-26T01:58:37;3.53;;;1.80;;
14858;SDS011;7521;51.700;6.874;2024-02-26T02:01:44;2.40;;;1.67;;
14858;SDS011;7521;51.700;6.874;2024-02-26T02:04:52;2.13;;;1.80;;
14858;SDS011;7521;51.700;6.874;2024-02-26T02:07:57;4.07;;;1.60;;
14858;SDS011;7521;51.700;6.874;2024-02-26T02:11:03;2.50;;;1.60;;
14858;SDS011;7521;51.700;6.874;2024-02-26T02:14:08;3.07;;;1.73;;
14858;SDS011;7521;51.700;6.874;2024-02-26T02:17:13;3.75;;;1.70;;
14858;SDS011;7521;51.700;6.874;2024-02-26T02:20:18;2.90;;;2.00;;
14858;SDS011;7521;51.700;6.874;2024-02-26T02:23:24;3.30;;;1.50;;
14858;SDS011;7521;51.700;6.874;2024-02-26T02:26:30;1.83;;;1.60;;
14858;SDS011;7521;51.700;6.874;2024-02-26T02:29:36;2.60;;;1.90;;
14858;SDS011;7521;51.700;6.874;2024-02-26T02:32:41;2.47;;;1.87;;
14858;SDS011;7521;51.700;6.874;2024-02-26T02:35:47;2.70;;;1.60;;
14858;SDS011;7521;51.700;6.874;2024-02-26T02:38:52;2.50;;;1.60;;
14858;SDS011;7521;51.700;6.874;2024-02-26T02:41:57;1.73;;;1.57;;
14858;SDS011;7521;51.700;6.874;2024-02-26T02:45:02;3.95;;;1.70;;
14858;SDS011;7521;51.700;6.874;2024-02-26T02:48:08;2.57;;;1.97;;
14858;SDS011;7521;51.700;6.874;2024-02-26T02:51:13;3.03;;;2.03;;
14858;SDS011;7521;51.700;6.874;2024-02-26T02:54:18;2.83;;;2.00;;
14858;SDS011;7521;51.700;6.874;2024-02-26T02:57:23;3.85;;;1.90;;
14858;SDS011;7521;51.700;6.874;2024-02-26T03:00:28;4.57;;;1.93;;
14858;SDS011;7521;51.700;6.874;2024-02-26T03:03:34;2.57;;;1.60;;
14858;SDS011;7521;51.700;6.874;2024-02-26T03:06:39;2.60;;;1.90;;
14858;SDS011;7521;51.700;6.874;2024-02-26T03:09:44;4.40;;;1.70;;
14858;SDS011;7521;51.700;6.874;2024-02-26T03:12:49;2.00;;;1.70;;
14858;SDS011;7521;51.700;6.874;2024-02-26T03:15:55;2.70;;;1.80;;
14858;SDS011;7521;51.700;6.874;2024-02-26T03:19:00;2.10;;;1.63;;
14858;SDS011;7521;51.700;6.874;2024-02-26T03:22:05;2.67;;;1.73;;
14858;SDS011;7521;51.700;6.874;2024-02-26T03:25:11;4.07;;;1.40;;
14858;SDS011;7521;51.700;6.874;2024-02-26T03:28:16;3.97;;;1.80;;
14858;SDS011;7521;51.700;6.874;2024-02-26T03:31:21;2.17;;;1.55;;
14858;SDS011;7521;51.700;6.874;2024-02-26T03:34:27;3.40;;;1.53;;
14858;SDS011;7521;51.700;6.874;2024-02-26T03:37:32;3.73;;;1.27;;
14858;SDS011;7521;51.700;6.874;2024-02-26T03:40:38;1.80;;;1.23;;
14858;SDS011;7521;51.700;6.874;2024-02-26T03:43:43;2.73;;;1.50;;
14858;SDS011;7521;51.700;6.874;2024-02-26T03:46:50;2.27;;;1.47;;
14858;SDS011;7521;51.700;6.874;2024-02-26T03:49:55;2.67;;;1.37;;
14858;SDS011;7521;51.700;6.874;2024-02-26T03:53:00;2.22;;;1.30;;
14858;SDS011;7521;51.700;6.874;2024-02-26T03:56:06;4.32;;;1.30;;
14858;SDS011;7521;51.700;6.874;2024-02-26T03:59:11;2.10;;;1.20;;
14858;SDS011;7521;51.700;6.874;2024-02-26T04:02:16;2.23;;;1.47;;
14858;SDS011;7521;51.700;6.874;2024-02-26T04:05:21;2.93;;;1.60;;
14858;SDS011;7521;51.700;6.874;2024-02-26T04:08:27;2.23;;;1.20;;
14858;SDS011;7521;51.700;6.874;2024-02-26T04:11:32;3.05;;;1.30;;
14858;SDS011;7521;51.700;6.874;2024-02-26T04:14:38;2.00;;;1.40;;
14858;SDS011;7521;51.700;6.874;2024-02-26T04:17:43;2.75;;;1.30;;
14858;SDS011;7521;51.700;6.874;2024-02-26T04:20:48;2.43;;;1.77;;
14858;SDS011;7521;51.700;6.874;2024-02-26T04:23:53;1.52;;;1.35;;
14858;SDS011;7521;51.700;6.874;2024-02-26T04:27:00;1.90;;;1.60;;
14858;SDS011;7521;51.700;6.874;2024-02-26T04:30:06;2.78;;;1.67;;
14858;SDS011;7521;51.700;6.874;2024-02-26T04:33:11;4.67;;;2.00;;
14858;SDS011;7521;51.700;6.874;2024-02-26T04:36:16;3.30;;;1.58;;
14858;SDS011;7521;51.700;6.874;2024-02-26T04:39:22;3.83;;;1.93;;
14858;SDS011;7521;51.700;6.874;2024-02-26T04:42:27;3.00;;;2.30;;
14858;SDS011;7521;51.700;6.874;2024-02-26T04:45:32;4.53;;;2.50;;
14858;SDS011;7521;51.700;6.874;2024-02-26T04:48:37;2.93;;;1.90;;
14858;SDS011;7521;51.700;6.874;2024-02-26T04:51:47;2.20;;;1.80;;
14858;SDS011;7521;51.700;6.874;2024-02-26T04:54:53;2.60;;;1.90;;
14858;SDS011;7521;51.700;6.874;2024-02-26T04:57:59;3.63;;;2.00;;
14858;SDS011;7521;51.700;6.874;2024-02-26T05:01:04;4.03;;;2.10;;
14858;SDS011;7521;51.700;6.874;2024-02-26T05:04:09;2.40;;;1.63;;
14858;SDS011;7521;51.700;6.874;2024-02-26T05:07:15;3.00;;;1.93;;
14858;SDS011;7521;51.700;6.874;2024-02-26T05:10:22;4.47;;;2.40;;
14858;SDS011;7521;51.700;6.874;2024-02-26T05:13:28;3.77;;;2.10;;
14858;SDS011;7521;51.700;6.874;2024-02-26T05:16:33;3.40;;;2.10;;
14858;SDS011;7521;51.700;6.874;2024-02-26T05:19:38;2.70;;;2.00;;
14858;SDS011;7521;51.700;6.874;2024-02-26T05:22:43;2.67;;;1.70;;
14858;SDS011;7521;51.700;6.874;2024-02-26T05:25:49;3.47;;;2.30;;
14858;SDS011;7521;51.700;6.874;2024-02-26T05:28:54;2.80;;;2.20;;
14858;SDS011;7521;51.700;6.874;2024-02-26T05:32:05;3.30;;;2.00;;
14858;SDS011;7521;51.700;6.874;2024-02-26T05:35:10;3.97;;;2.63;;
14858;SDS011;7521;51.700;6.874;2024-02-26T05:38:15;2.53;;;2.17;;
14858;SDS011;7521;51.700;6.874;2024-02-26T05:41:21;3.03;;;2.13;;
14858;SDS011;7521;51.700;6.874;2024-02-26T05:44:31;2.60;;;2.10;;
14858;SDS011;7521;51.700;6.874;2024-02-26T05:47:36;4.57;;;2.25;;
14858;SDS011;7521;51.700;6.874;2024-02-26T05:50:47;2.33;;;1.80;;
14858;SDS011;7521;51.700;6.874;2024-02-26T05:53:52;3.13;;;2.03;;
14858;SDS011;7521;51.700;6.874;2024-02-26T05:57:00;2.87;;;2.20;;
14858;SDS011;7521;51.700;6.874;2024-02-26T06:00:06;2.97;;;2.00;;
14858;SDS011;7521;51.700;6.874;2024-02-26T06:03:11;3.40;;;2.30;;
14858;SDS011;7521;51.700;6.874;2024-02-26T06:06:16;4.22;;;2.00;;
14858;SDS011;7521;51.700;6.874;2024-02-26T06:09:22;2.27;;;1.83;;
14858;SDS011;7521;51.700;6.874;2024-02-26T06:12:27;3.30;;;2.50;;
14858;SDS011;7521;51.700;6.874;2024-02-26T06:15:33;3.67;;;2.20;;
14858;SDS011;7521;51.700;6.874;2024-02-26T06:18:38;4.13;;;2.30;;
14858;SDS011;7521;51.700;6.874;2024-02-26T06:21:43;2.80;;;2.30;;
14858;SDS011;7521;51.700;6.874;2024-02-26T06:24:48;2.83;;;2.00;;
14858;SDS011;7521;51.700;6.874;2024-02-26T06:27:54;3.17;;;2.28;;
14858;SDS011;7521;51.700;6.874;2024-02-26T06:31:00;3.60;;;2.43;;
14858;SDS011;7521;51.700;6.874;2024-02-26T06:34:05;2.90;;;2.00;;
14858;SDS011;7521;51.700;6.874;2024-02-26T06:37:10;2.50;;;2.03;;
14858;SDS011;7521;51.700;6.874;2024-02-26T06:40:15;3.00;;;2.07;;
14858;SDS011;7521;51.700;6.874;2024-02-26T06:43:21;4.05;;;2.50;;
14858;SDS011;7521;51.700;6.874;2024-02-26T06:46:26;2.63;;;2.33;;
14858;SDS011;7521;51.700;6.874;2024-02-26T06:49:31;2.87;;;1.90;;
14858;SDS011;7521;51.700;6.874;2024-02-26T06:52:36;5.72;;;2.05;;
14858;SDS011;7521;51.700;6.874;2024-02-26T06:55:42;3.70;;;2.13;;
14858;SDS011;7521;51.700;6.874;2024-02-26T06:58:47;2.63;;;1.80;;
14858;SDS011;7521;51.700;6.874;2024-02-26T07:01:53;3.27;;;1.90;;
14858;SDS011;7521;51.700;6.874;2024-02-26T07:04:59;2.80;;;2.10;;
14858;SDS011;7521;51.700;6.874;2024-02-26T07:08:04;3.00;;;2.00;;
14858;SDS011;7521;51.700;6.874;2024-02-26T07:11:10;3.23;;;2.00;;
14858;SDS011;7521;51.700;6.874;2024-02-26T07:14:15;4.10;;;1.90;;
14858;SDS011;7521;51.700;6.874;2024-02-26T07:17:20;4.00;;;1.90;;
14858;SDS011;7521;51.700;6.874;2024-02-26T07:20:26;3.63;;;2.00;;
14858;SDS011;7521;51.700;6.874;2024-02-26T07:23:31;4.80;;;2.55;;
14858;SDS011;7521;51.700;6.874;2024-02-26T07:26:36;4.77;;;2.50;;
14858;SDS011;7521;51.700;6.874;2024-02-26T07:29:41;2.85;;;2.10;;
14858;SDS011;7521;51.700;6.874;2024-02-26T07:32:46;4.87;;;3.37;;
14858;SDS011;7521;51.700;6.874;2024-02-26T07:35:52;2.83;;;1.60;;
14858;SDS011;7521;51.700;6.874;2024-02-26T07:38:58;2.90;;;1.70;;
14858;SDS011;7521;51.700;6.874;2024-02-26T07:42:03;3.17;;;1.70;;
14858;SDS011;7521;51.700;6.874;2024-02-26T07:45:09;2.83;;;1.73;;
14858;SDS011;7521;51.700;6.874;2024-02-26T07:48:14;2.97;;;2.50;;
14858;SDS011;7521;51.700;6.874;2024-02-26T07:51:20;2.57;;;1.53;;
14858;SDS011;7521;51.700;6.874;2024-02-26T07:54:25;2.40;;;2.03;;
14858;SDS011;7521;51.700;6.874;2024-02-26T07:57:32;2.50;;;1.77;;
14858;SDS011;7521;51.700;6.874;2024-02-26T08:00:38;1.70;;;1.60;;
14858;SDS011;7521;51.700;6.874;2024-02-26T08:03:43;2.70;;;1.75;;
14858;SDS011;7521;51.700;6.874;2024-02-26T08:06:49;3.40;;;1.80;;
14858;SDS011;7521;51.700;6.874;2024-02-26T08:09:54;2.38;;;1.85;;
14858;SDS011;7521;51.700;6.874;2024-02-26T08:12:59;5.80;;;1.80;;
14858;SDS011;7521;51.700;6.874;2024-02-26T08:16:10;2.33;;;1.63;;
14858;SDS011;7521;51.700;6.874;2024-02-26T08:19:15;2.10;;;1.60;;
14858;SDS011;7521;51.700;6.874;2024-02-26T08:22:20;1.80;;;1.50;;
14858;SDS011;7521;51.700;6.874;2024-02-26T08:25:26;3.17;;;1.60;;
14858;SDS011;7521;51.700;6.874;2024-02-26T08:28:31;3.00;;;1.80;;
14858;SDS011;7521;51.700;6.874;2024-02-26T08:31:36;1.58;;;1.48;;
14858;SDS011;7521;51.700;6.874;2024-02-26T08:34:42;3.60;;;1.87;;
14858;SDS011;7521;51.700;6.874;2024-02-26T08:37:47;6.85;;;2.28;;
14858;SDS011;7521;51.700;6.874;2024-02-26T08:40:52;3.03;;;1.83;;
14858;SDS011;7521;51.700;6.874;2024-02-26T08:43:58;4.57;;;1.83;;
14858;SDS011;7521;51.700;6.874;2024-02-26T08:47:03;2.13;;;1.80;;
14858;SDS011;7521;51.700;6.874;2024-02-26T08:50:08;2.00;;;1.70;;
14858;SDS011;7521;51.700;6.874;2024-02-26T08:53:15;2.00;;;1.80;;
14858;SDS011;7521;51.700;6.874;2024-02-26T08:56:20;2.65;;;1.55;;
14858;SDS011;7521;51.700;6.874;2024-02-26T08:59:26;2.00;;;1.40;;
14858;SDS011;7521;51.700;6.874;2024-02-26T09:02:31;2.92;;;1.50;;
14858;SDS011;7521;51.700;6.874;2024-02-26T09:05:37;2.77;;;1.70;;
14858;SDS011;7521;51.700;6.874;2024-02-26T09:08:42;5.50;;;1.50;;
14858;SDS011;7521;51.700;6.874;2024-02-26T09:11:47;3.58;;;2.13;;
14858;SDS011;7521;51.700;6.874;2024-02-26T09:14:53;3.40;;;1.90;;
14858;SDS011;7521;51.700;6.874;2024-02-26T09:18:00;3.07;;;2.10;;
14858;SDS011;7521;51.700;6.874;2024-02-26T09:21:06;2.80;;;1.90;;
14858;SDS011;7521;51.700;6.874;2024-02-26T09:24:12;2.80;;;2.50;;
14858;SDS011;7521;51.700;6.874;2024-02-26T09:27:17;4.73;;;2.40;;
14858;SDS011;7521;51.700;6.874;2024-02-26T09:30:22;2.40;;;2.20;;
14858;SDS011;7521;51.700;6.874;2024-02-26T09:33:27;3.00;;;2.10;;
14858;SDS011;7521;51.700;6.874;2024-02-26T09:36:33;4.10;;;2.17;;
14858;SDS011;7521;51.700;6.874;2024-02-26T09:39:38;3.13;;;2.20;;
14858;SDS011;7521;51.700;6.874;2024-02-26T09:42:44;3.08;;;2.38;;
14858;SDS011;7521;51.700;6.874;2024-02-26T09:45:50;3.33;;;2.23;;
14858;SDS011;7521;51.700;6.874;2024-02-26T09:48:56;4.60;;;2.80;;
14858;SDS011;7521;51.700;6.874;2024-02-26T09:52:03;3.70;;;2.88;;
14858;SDS011;7521;51.700;6.874;2024-02-26T09:55:09;3.40;;;3.07;;
14858;SDS011;7521;51.700;6.874;2024-02-26T09:58:14;5.17;;;2.87;;
14858;SDS011;7521;51.700;6.874;2024-02-26T10:01:23;4.20;;;3.10;;
14858;SDS011;7521;51.700;6.874;2024-02-26T10:04:30;5.03;;;3.40;;
14858;SDS011;7521;51.700;6.874;2024-02-26T10:07:36;4.73;;;3.47;;
14858;SDS011;7521;51.700;6.874;2024-02-26T10:10:42;6.40;;;3.70;;
14858;SDS011;7521;51.700;6.874;2024-02-26T10:13:47;5.83;;;3.20;;
14858;SDS011;7521;51.700;6.874;2024-02-26T10:16:52;4.23;;;3.70;;
14858;SDS011;7521;51.700;6.874;2024-02-26T10:20:13;4.60;;;3.50;;
14858;SDS011;7521;51.700;6.874;2024-02-26T10:23:22;7.17;;;3.93;;
14858;SDS011;7521;51.700;6.874;2024-02-26T10:26:27;6.82;;;4.00;;
14858;SDS011;7521;51.700;6.874;2024-02-26T10:29:32;5.35;;;3.63;;
14858;SDS011;7521;51.700;6.874;2024-02-26T10:32:38;5.60;;;3.83;;
14858;SDS011;7521;51.700;6.874;2024-02-26T10:35:46;6.30;;;4.37;;
14858;SDS011;7521;51.700;6.874;2024-02-26T10:38:52;6.53;;;4.40;;
14858;SDS011;7521;51.700;6.874;2024-02-26T10:41:59;7.63;;;4.37;;
14858;SDS011;7521;51.700;6.874;2024-02-26T10:45:09;6.17;;;4.03;;
14858;SDS011;7521;51.700;6.874;2024-02-26T10:48:15;5.73;;;3.67;;
14858;SDS011;7521;51.700;6.874;2024-02-26T10:51:28;8.07;;;4.47;;
14858;SDS011;7521;51.700;6.874;2024-02-26T10:54:33;6.00;;;4.40;;
14858;SDS011;7521;51.700;6.874;2024-02-26T10:57:40;5.90;;;4.17;;
14858;SDS011;7521;51.700;6.874;2024-02-26T11:00:45;5.80;;;4.53;;
14858;SDS011;7521;51.700;6.874;2024-02-26T11:03:52;7.37;;;5.83;;
14858;SDS011;7521;51.700;6.874;2024-02-26T11:06:58;8.70;;;4.67;;
14858;SDS011;7521;51.700;6.874;2024-02-26T11:10:03;8.77;;;4.70;;
14858;SDS011;7521;51.700;6.874;2024-02-26T11:13:09;6.63;;;4.93;;
14858;SDS011;7521;51.700;6.874;2024-02-26T11:16:19;6.40;;;4.80;;
14858;SDS011;7521;51.700;6.874;2024-02-26T11:19:25;9.97;;;5.07;;
14858;SDS011;7521;51.700;6.874;2024-02-26T11:22:31;7.67;;;5.40;;
14858;SDS011;7521;51.700;6.874;2024-02-26T11:25:38;10.80;;;7.77;;
14858;SDS011;7521;51.700;6.874;2024-02-26T11:28:44;7.97;;;5.33;;
14858;SDS011;7521;51.700;6.874;2024-02-26T11:31:50;7.87;;;5.40;;
14858;SDS011;7521;51.700;6.874;2024-02-26T11:34:56;9.33;;;5.10;;
14858;SDS011;7521;51.700;6.874;2024-02-26T11:38:02;7.30;;;5.30;;
14858;SDS011;7521;51.700;6.874;2024-02-26T11:41:08;8.50;;;5.07;;
14858;SDS011;7521;51.700;6.874;2024-02-26T11:44:13;9.23;;;5.23;;
14858;SDS011;7521;51.700;6.874;2024-02-26T11:47:19;8.55;;;5.00;;
14858;SDS011;7521;51.700;6.874;2024-02-26T11:50:40;8.70;;;5.80;;
14858;SDS011;7521;51.700;6.874;2024-02-26T11:53:46;8.00;;;5.33;;
14858;SDS011;7521;51.700;6.874;2024-02-26T11:56:53;7.07;;;5.13;;
14858;SDS011;7521;51.700;6.874;2024-02-26T12:00:12;6.73;;;5.30;;
14858;SDS011;7521;51.700;6.874;2024-02-26T12:03:17;8.17;;;6.00;;
14858;SDS011;7521;51.700;6.874;2024-02-26T12:06:23;8.20;;;5.47;;
14858;SDS011;7521;51.700;6.874;2024-02-26T12:09:37;8.07;;;5.60;;
14858;SDS011;7521;51.700;6.874;2024-02-26T12:12:42;8.97;;;5.70;;
14858;SDS011;7521;51.700;6.874;2024-02-26T12:15:57;8.67;;;6.97;;
14858;SDS011;7521;51.700;6.874;2024-02-26T12:19:06;7.93;;;5.77;;
14858;SDS011;7521;51.700;6.874;2024-02-26T12:22:15;12.43;;;8.50;;
14858;SDS011;7521;51.700;6.874;2024-02-26T12:25:22;8.20;;;5.63;;
14858;SDS011;7521;51.700;6.874;2024-02-26T12:28:28;7.80;;;5.83;;
14858;SDS011;7521;51.700;6.874;2024-02-26T12:31:34;8.13;;;6.23;;
14858;SDS011;7521;51.700;6.874;2024-02-26T12:34:39;7.97;;;6.03;;
14858;SDS011;7521;51.700;6.874;2024-02-26T12:37:44;8.13;;;6.13;;
14858;SDS011;7521;51.700;6.874;2024-02-26T12:40:50;7.17;;;5.07;;
14858;SDS011;7521;51.700;6.874;2024-02-26T12:43:55;8.47;;;6.13;;
14858;SDS011;7521;51.700;6.874;2024-02-26T12:47:01;8.87;;;5.07;;
14858;SDS011;7521;51.700;6.874;2024-02-26T12:50:10;6.23;;;4.93;;
14858;SDS011;7521;51.700;6.874;2024-02-26T12:53:15;7.33;;;5.53;;
14858;SDS011;7521;51.700;6.874;2024-02-26T12:56:21;6.90;;;5.50;;
14858;SDS011;7521;51.700;6.874;2024-02-26T12:59:27;5.93;;;4.80;;
14858;SDS011;7521;51.700;6.874;2024-02-26T13:02:33;6.77;;;4.93;;
14858;SDS011;7521;51.700;6.874;2024-02-26T13:05:39;6.63;;;4.63;;
14858;SDS011;7521;51.700;6.874;2024-02-26T13:08:45;5.23;;;4.47;;
14858;SDS011;7521;51.700;6.874;2024-02-26T13:11:55;5.13;;;4.10;;
14858;SDS011;7521;51.700;6.874;2024-02-26T13:15:03;7.17;;;4.03;;
14858;SDS011;7521;51.700;6.874;2024-02-26T13:18:09;5.23;;;4.20;;
14858;SDS011;7521;51.700;6.874;2024-02-26T13:21:15;6.27;;;5.03;;
14858;SDS011;7521;51.700;6.874;2024-02-26T13:24:21;6.50;;;3.97;;
14858;SDS011;7521;51.700;6.874;2024-02-26T13:27:27;4.63;;;3.83;;
14858;SDS011;7521;51.700;6.874;2024-02-26T13:30:32;5.95;;;3.92;;
14858;SDS011;7521;51.700;6.874;2024-02-26T13:33:37;6.30;;;4.07;;
14858;SDS011;7521;51.700;6.874;2024-02-26T13:36:42;6.23;;;4.17;;
14858;SDS011;7521;51.700;6.874;2024-02-26T13:39:48;5.07;;;3.80;;
14858;SDS011;7521;51.700;6.874;2024-02-26T13:42:53;4.78;;;4.05;;
14858;SDS011;7521;51.700;6.874;2024-02-26T13:45:58;5.10;;;3.93;;
14858;SDS011;7521;51.700;6.874;2024-02-26T13:49:03;5.18;;;4.35;;
14858;SDS011;7521;51.700;6.874;2024-02-26T13:52:08;4.93;;;4.20;;
14858;SDS011;7521;51.700;6.874;2024-02-26T13:55:14;7.18;;;4.40;;
14858;SDS011;7521;51.700;6.874;2024-02-26T13:58:22;5.50;;;4.40;;
14858;SDS011;7521;51.700;6.874;2024-02-26T14:01:28;5.93;;;3.87;;
14858;SDS011;7521;51.700;6.874;2024-02-26T14:04:33;5.97;;;4.88;;
14858;SDS011;7521;51.700;6.874;2024-02-26T14:07:39;4.88;;;4.35;;
14858;SDS011;7521;51.700;6.874;2024-02-26T14:10:44;5.57;;;4.10;;
14858;SDS011;7521;51.700;6.874;2024-02-26T14:13:50;6.17;;;4.80;;
14858;SDS011;7521;51.700;6.874;2024-02-26T14:16:55;6.55;;;5.18;;
14858;SDS011;7521;51.700;6.874;2024-02-26T14:20:00;7.65;;;5.38;;
14858;SDS011;7521;51.700;6.874;2024-02-26T14:23:05;6.80;;;4.97;;
14858;SDS011;7521;51.700;6.874;2024-02-26T14:26:11;6.90;;;5.10;;
14858;SDS011;7521;51.700;6.874;2024-02-26T14:29:17;8.23;;;5.17;;
14858;SDS011;7521;51.700;6.874;2024-02-26T14:32:22;8.83;;;5.43;;
14858;SDS011;7521;51.700;6.874;2024-02-26T14:35:27;7.77;;;5.57;;
14858;SDS011;7521;51.700;6.874;2024-02-26T14:38:32;6.15;;;5.07;;
14858;SDS011;7521;51.700;6.874;2024-02-26T14:41:38;8.77;;;5.90;;
14858;SDS011;7521;51.700;6.874;2024-02-26T14:44:43;8.50;;;6.33;;
14858;SDS011;7521;51.700;6.874;2024-02-26T14:47:49;7.90;;;6.10;;
14858;SDS011;7521;51.700;6.874;2024-02-26T14:50:54;11.27;;;6.22;;
14858;SDS011;7521;51.700;6.874;2024-02-26T14:54:00;9.20;;;6.57;;
14858;SDS011;7521;51.700;6.874;2024-02-26T14:57:07;9.27;;;6.17;;
14858;SDS011;7521;51.700;6.874;2024-02-26T15:00:12;9.03;;;7.10;;
14858;SDS011;7521;51.700;6.874;2024-02-26T15:03:17;10.17;;;7.17;;
14858;SDS011;7521;51.700;6.874;2024-02-26T15:06:23;10.40;;;7.53;;
14858;SDS011;7521;51.700;6.874;2024-02-26T15:09:28;10.93;;;7.43;;
14858;SDS011;7521;51.700;6.874;2024-02-26T15:12:33;11.37;;;7.57;;
14858;SDS011;7521;51.700;6.874;2024-02-26T15:15:38;13.43;;;10.40;;
14858;SDS011;7521;51.700;6.874;2024-02-26T15:18:46;13.07;;;9.03;;
14858;SDS011;7521;51.700;6.874;2024-02-26T15:21:51;15.13;;;11.77;;
14858;SDS011;7521;51.700;6.874;2024-02-26T15:24:56;13.20;;;9.52;;
14858;SDS011;7521;51.700;6.874;2024-02-26T15:28:02;17.40;;;9.23;;
14858;SDS011;7521;51.700;6.874;2024-02-26T15:31:07;13.50;;;9.07;;
14858;SDS011;7521;51.700;6.874;2024-02-26T15:34:13;13.20;;;9.20;;
14858;SDS011;7521;51.700;6.874;2024-02-26T15:37:18;12.25;;;9.07;;
14858;SDS011;7521;51.700;6.874;2024-02-26T15:40:24;31.73;;;25.17;;
14858;SDS011;7521;51.700;6.874;2024-02-26T15:43:29;29.90;;;19.63;;
14858;SDS011;7521;51.700;6.874;2024-02-26T15:46:41;19.23;;;12.27;;
14858;SDS011;7521;51.700;6.874;2024-02-26T15:49:46;42.30;;;29.17;;
14858;SDS011;7521;51.700;6.874;2024-02-26T15:52:52;22.83;;;17.43;;
14858;SDS011;7521;51.700;6.874;2024-02-26T15:55:57;12.80;;;8.95;;
14858;SDS011;7521;51.700;6.874;2024-02-26T15:59:02;17.13;;;11.73;;
14858;SDS011;7521;51.700;6.874;2024-02-26T16:02:07;19.87;;;14.43;;
14858;SDS011;7521;51.700;6.874;2024-02-26T16:05:12;13.45;;;9.77;;
14858;SDS011;7521;51.700;6.874;2024-02-26T16:08:19;16.93;;;9.27;;
14858;SDS011;7521;51.700;6.874;2024-02-26T16:11:25;12.87;;;9.33;;
14858;SDS011;7521;51.700;6.874;2024-02-26T16:14:42;13.63;;;9.70;;
14858;SDS011;7521;51.700;6.874;2024-02-26T16:17:49;12.43;;;8.93;;
14858;SDS011;7521;51.700;6.874;2024-02-26T16:20:56;13.47;;;8.90;;
14858;SDS011;7521;51.700;6.874;2024-02-26T16:24:02;12.93;;;8.67;;
14858;SDS011;7521;51.700;6.874;2024-02-26T16:27:07;17.30;;;9.20;;
14858;SDS011;7521;51.700;6.874;2024-02-26T16:30:12;13.02;;;9.32;;
14858;SDS011;7521;51.700;6.874;2024-02-26T16:33:18;11.00;;;7.83;;
14858;SDS011;7521;51.700;6.874;2024-02-26T16:36:23;11.40;;;8.23;;
14858;SDS011;7521;51.700;6.874;2024-02-26T16:39:28;10.80;;;8.50;;
14858;SDS011;7521;51.700;6.874;2024-02-26T16:42:33;15.65;;;8.50;;
14858;SDS011;7521;51.700;6.874;2024-02-26T16:45:39;13.97;;;9.17;;
14858;SDS011;7521;51.700;6.874;2024-02-26T16:48:44;11.50;;;8.93;;
14858;SDS011;7521;51.700;6.874;2024-02-26T16:51:49;15.93;;;11.87;;
14858;SDS011;7521;51.700;6.874;2024-02-26T16:54:55;16.60;;;10.60;;
14858;SDS011;7521;51.700;6.874;2024-02-26T16:58:00;13.17;;;9.40;;
14858;SDS011;7521;51.700;6.874;2024-02-26T17:01:06;14.33;;;10.77;;
14858;SDS011;7521;51.700;6.874;2024-02-26T17:04:12;13.50;;;9.93;;
14858;SDS011;7521;51.700;6.874;2024-02-26T17:07:17;15.57;;;11.35;;
14858;SDS011;7521;51.700;6.874;2024-02-26T17:10:22;13.00;;;10.32;;
14858;SDS011;7521;51.700;6.874;2024-02-26T17:13:27;14.70;;;12.37;;
14858;SDS011;7521;51.700;6.874;2024-02-26T17:16:33;21.60;;;16.93;;
14858;SDS011;7521;51.700;6.874;2024-02-26T17:19:41;14.73;;;11.17;;
14858;SDS011;7521;51.700;6.874;2024-02-26T17:22:46;15.83;;;12.37;;
14858;SDS011;7521;51.700;6.874;2024-02-26T17:25:51;15.03;;;10.40;;
14858;SDS011;7521;51.700;6.874;2024-02-26T17:28:58;14.53;;;9.93;;
14858;SDS011;7521;51.700;6.874;2024-02-26T17:32:04;13.57;;;9.70;;
14858;SDS011;7521;51.700;6.874;2024-02-26T17:35:10;13.67;;;10.10;;
14858;SDS011;7521;51.700;6.874;2024-02-26T17:38:19;13.17;;;10.07;;
14858;SDS011;7521;51.700;6.874;2024-02-26T17:41:24;16.17;;;11.55;;
14858;SDS011;7521;51.700;6.874;2024-02-26T17:44:33;16.57;;;10.67;;
14858;SDS011;7521;51.700;6.874;2024-02-26T17:47:38;15.33;;;10.63;;
14858;SDS011;7521;51.700;6.874;2024-02-26T17:50:43;14.83;;;13.20;;
14858;SDS011;7521;51.700;6.874;2024-02-26T17:53:49;13.27;;;10.80;;
14858;SDS011;7521;51.700;6.874;2024-02-26T17:56:54;13.97;;;10.70;;
14858;SDS011;7521;51.700;6.874;2024-02-26T17:59:59;17.80;;;12.57;;
14858;SDS011;7521;51.700;6.874;2024-02-26T18:03:05;14.95;;;10.95;;
14858;SDS011;7521;51.700;6.874;2024-02-26T18:06:10;16.60;;;12.00;;
14858;SDS011;7521;51.700;6.874;2024-02-26T18:09:15;18.53;;;11.97;;
14858;SDS011;7521;51.700;6.874;2024-02-26T18:12:22;16.07;;;11.80;;
14858;SDS011;7521;51.700;6.874;2024-02-26T18:15:27;16.87;;;12.37;;
14858;SDS011;7521;51.700;6.874;2024-02-26T18:18:32;75.18;;;36.83;;
14858;SDS011;7521;51.700;6.874;2024-02-26T18:21:38;38.23;;;27.30;;
14858;SDS011;7521;51.700;6.874;2024-02-26T18:24:43;15.77;;;11.67;;
14858;SDS011;7521;51.700;6.874;2024-02-26T18:27:48;14.48;;;10.23;;
14858;SDS011;7521;51.700;6.874;2024-02-26T18:30:54;17.97;;;13.13;;
14858;SDS011;7521;51.700;6.874;2024-02-26T18:33:59;15.70;;;11.17;;
14858;SDS011;7521;51.700;6.874;2024-02-26T18:37:05;16.33;;;12.30;;
14858;SDS011;7521;51.700;6.874;2024-02-26T18:40:12;18.17;;;11.77;;
14858;SDS011;7521;51.700;6.874;2024-02-26T18:43:17;17.05;;;12.35;;
14858;SDS011;7521;51.700;6.874;2024-02-26T18:46:22;17.30;;;11.70;;
14858;SDS011;7521;51.700;6.874;2024-02-26T18:49:27;16.00;;;11.07;;
14858;SDS011;7521;51.700;6.874;2024-02-26T18:52:34;18.97;;;13.97;;